HKS55 ENTO-ZZZZ
Flight info
| Callsign | HKS55 |
|---|---|
| Flight time | N/A |
| Altitude | 1500 |
| Route | VFR/36 |
| Aircraft | CH47/L-V/N |
Departure
| Time | 2026-05-04 17:01 |
|---|---|
| Airport | Sandefjord Airport, Torp (ENTO) |
Arrival
| Time | N/A |
|---|---|
| Airport | ZZZZ |
| Time | Latitude | Longitude | Altitude | Speed | Heading |
|---|---|---|---|---|---|
| 2026-05-04 16:41 | 59.18546 | 10.25517 | 271 ft | 0 kts | 359° |
| 2026-05-04 16:50 | 59.18548 | 10.25517 | 272 ft | 2 kts | 3° |
| 2026-05-04 16:50 | 59.18550 | 10.25568 | 271 ft | 6 kts | 180° |
| 2026-05-04 16:51 | 59.18473 | 10.25563 | 271 ft | 7 kts | 182° |
| 2026-05-04 16:51 | 59.18450 | 10.25560 | 271 ft | 3 kts | 183° |
| 2026-05-04 16:51 | 59.18447 | 10.25560 | 271 ft | 0 kts | 183° |
| 2026-05-04 16:52 | 59.18448 | 10.25646 | 271 ft | 5 kts | 44° |
| 2026-05-04 16:52 | 59.18489 | 10.25730 | 271 ft | 9 kts | 48° |
| 2026-05-04 16:53 | 59.18552 | 10.25863 | 272 ft | 3 kts | 2° |
| 2026-05-04 16:53 | 59.18948 | 10.25867 | 447 ft | 94 kts | 2° |
| 2026-05-04 16:54 | 59.19723 | 10.25863 | 588 ft | 116 kts | 355° |
| 2026-05-04 16:55 | 59.19698 | 10.28112 | 611 ft | 106 kts | 187° |
| 2026-05-04 16:55 | 59.18070 | 10.28504 | 747 ft | 115 kts | 190° |
| 2026-05-04 16:56 | 59.16711 | 10.27907 | 774 ft | 89 kts | 253° |
| 2026-05-04 16:56 | 59.17617 | 10.25892 | 326 ft | 82 kts | 357° |
| 2026-05-04 16:57 | 59.18208 | 10.25899 | 295 ft | 92 kts | 352° |
| 2026-05-04 16:57 | 59.19541 | 10.25881 | 322 ft | 89 kts | 354° |
| 2026-05-04 16:58 | 59.20444 | 10.27856 | 677 ft | 99 kts | 145° |
| 2026-05-04 16:58 | 59.19817 | 10.28503 | 540 ft | 116 kts | 184° |
| 2026-05-04 16:59 | 59.18087 | 10.28356 | 558 ft | 125 kts | 181° |
| 2026-05-04 17:00 | 59.16972 | 10.25934 | 402 ft | 93 kts | 356° |
| 2026-05-04 17:00 | 59.19118 | 10.25868 | 305 ft | 115 kts | 356° |
| 2026-05-04 17:01 | 59.21209 | 10.26317 | 815 ft | 175 kts | 66° |
| 2026-05-04 17:01 | 59.19563 | 10.28213 | 1205 ft | 177 kts | 187° |
| 2026-05-04 17:02 | 59.17033 | 10.28981 | 1372 ft | 196 kts | 183° |
| 2026-05-04 17:02 | 59.14963 | 10.32356 | 1624 ft | 209 kts | 135° |
| 2026-05-04 17:03 | 59.14051 | 10.34607 | 1559 ft | 202 kts | 139° |
| 2026-05-04 17:03 | 59.13216 | 10.36642 | 2169 ft | 187 kts | 140° |
| 2026-05-04 17:03 | 59.11732 | 10.40237 | 1469 ft | 171 kts | 135° |
| 2026-05-04 17:04 | 59.10216 | 10.41852 | 1121 ft | 120 kts | 190° |
| 2026-05-04 17:04 | 59.08551 | 10.41744 | 733 ft | 131 kts | 196° |